createdAt,value
2023-12-11T00:00:56.782Z,40.08
2023-12-11T00:03:27.273Z,37.85
2023-12-11T00:05:59.326Z,38.95
2023-12-11T00:08:29.155Z,36.97
2023-12-11T00:10:56.962Z,37.83
2023-12-11T00:13:45.539Z,39.92
2023-12-11T00:16:19.159Z,38.00
2023-12-11T00:18:52.535Z,36.80
2023-12-11T00:21:37.078Z,38.35
2023-12-11T00:24:16.400Z,36.95
2023-12-11T00:26:44.798Z,36.35
2023-12-11T00:29:16.393Z,36.08
2023-12-11T00:31:56.720Z,33.30
2023-12-11T00:34:28.404Z,36.28
2023-12-11T00:37:01.502Z,34.45
2023-12-11T00:39:36.231Z,34.65
2023-12-11T00:42:16.877Z,33.17
2023-12-11T00:44:49.015Z,32.65
2023-12-11T00:47:20.672Z,32.65
2023-12-11T00:50:05.534Z,32.50
2023-12-11T00:52:43.565Z,28.63
2023-12-11T00:55:18.112Z,30.05
2023-12-11T00:57:49.317Z,28.83
2023-12-11T01:00:17.274Z,27.65
2023-12-11T01:02:45.012Z,26.30
2023-12-11T01:05:18.684Z,26.63
2023-12-11T01:07:46.110Z,25.50
2023-12-11T01:10:15.874Z,24.52
2023-12-11T01:12:47.833Z,24.90
2023-12-11T01:15:20.889Z,23.77
2023-12-11T01:17:54.466Z,23.83
2023-12-11T01:20:24.458Z,22.33
2023-12-11T01:23:09.637Z,24.58
2023-12-11T01:25:47.391Z,23.70
2023-12-11T01:28:19.610Z,27.73
2023-12-11T01:30:50.448Z,26.65
2023-12-11T01:33:28.461Z,29.17
2023-12-11T01:35:57.729Z,26.52
2023-12-11T01:38:34.099Z,26.88
2023-12-11T01:41:01.912Z,27.23
2023-12-11T01:43:32.617Z,25.38
2023-12-11T01:46:19.553Z,27.10
2023-12-11T01:48:51.673Z,27.15
2023-12-11T01:51:35.585Z,25.50
2023-12-11T01:54:04.206Z,23.58
2023-12-11T01:56:36.001Z,23.58
2023-12-11T01:59:04.050Z,23.42
2023-12-11T02:01:35.599Z,24.55
2023-12-11T02:04:04.749Z,23.77
2023-12-11T02:06:45.679Z,24.30
2023-12-11T02:09:19.225Z,25.35
2023-12-11T02:11:49.597Z,24.13
2023-12-11T02:14:17.258Z,25.10
2023-12-11T02:16:50.600Z,23.88
2023-12-11T02:19:21.929Z,22.90
2023-12-11T02:22:01.145Z,21.27
2023-12-11T02:24:34.112Z,22.17
2023-12-11T02:27:08.858Z,21.80
2023-12-11T02:29:45.330Z,18.85
2023-12-11T02:32:17.302Z,19.70
2023-12-11T02:34:49.235Z,19.10
2023-12-11T02:40:12.104Z,19.20
2023-12-11T02:42:49.636Z,19.83
2023-12-11T02:45:35.318Z,18.85
2023-12-11T02:48:12.769Z,20.05
2023-12-11T02:50:53.852Z,19.20
2023-12-11T02:53:27.702Z,18.63
2023-12-11T02:55:57.254Z,18.63
2023-12-11T02:58:29.213Z,19.13
2023-12-11T03:00:56.716Z,19.00
2023-12-11T03:03:24.122Z,18.50
2023-12-11T03:06:02.788Z,18.05
2023-12-11T03:08:30.298Z,17.52
2023-12-11T03:11:00.467Z,18.00
2023-12-11T03:13:27.937Z,17.98
2023-12-11T03:15:58.560Z,17.50
2023-12-11T03:18:26.044Z,16.13
2023-12-11T03:20:53.648Z,16.45
2023-12-11T03:23:29.648Z,16.65
2023-12-11T03:26:06.222Z,16.35
2023-12-11T03:28:38.782Z,17.05
2023-12-11T03:31:22.419Z,16.92
2023-12-11T03:33:50.056Z,16.33
2023-12-11T03:36:34.940Z,16.92
2023-12-11T03:39:05.257Z,17.85
2023-12-11T03:42:12.428Z,18.25
2023-12-11T03:44:55.536Z,17.95
2023-12-11T03:47:23.153Z,17.77
2023-12-11T03:49:55.056Z,17.15
2023-12-11T03:52:27.934Z,18.35
2023-12-11T03:54:59.144Z,19.15
2023-12-11T03:57:35.976Z,18.88
2023-12-11T04:00:09.476Z,18.88
2023-12-11T04:02:38.379Z,14.00
2023-12-11T04:05:14.026Z,19.40
2023-12-11T04:07:47.086Z,18.55
2023-12-11T04:10:36.312Z,18.58
2023-12-11T04:13:23.505Z,18.17
2023-12-11T04:15:58.844Z,20.23
2023-12-11T04:18:28.790Z,20.60
2023-12-11T04:21:13.133Z,19.80
2023-12-11T04:23:56.631Z,15.98
2023-12-11T04:26:25.118Z,21.58
2023-12-11T04:28:59.970Z,21.98
2023-12-11T04:31:40.899Z,22.42
2023-12-11T04:34:23.546Z,21.33
2023-12-11T04:37:05.338Z,22.35
2023-12-11T04:39:42.820Z,15.97
2023-12-11T04:42:22.037Z,21.30
2023-12-11T04:45:04.055Z,20.33
2023-12-11T04:47:41.840Z,19.98
2023-12-11T04:50:16.034Z,20.83
2023-12-11T04:52:54.254Z,21.95
2023-12-11T04:55:25.793Z,22.15
2023-12-11T04:57:58.241Z,21.15
2023-12-11T05:00:25.771Z,20.50
2023-12-11T05:02:56.944Z,22.75
2023-12-11T05:05:39.726Z,20.95
2023-12-11T05:08:07.278Z,20.55
2023-12-11T05:10:53.517Z,20.60
2023-12-11T05:13:21.070Z,21.23
2023-12-11T05:16:05.377Z,21.10
2023-12-11T05:18:38.613Z,21.73
2023-12-11T05:21:21.429Z,21.38
2023-12-11T05:26:58.100Z,21.73
2023-12-11T05:29:35.137Z,21.50
2023-12-11T05:32:22.607Z,21.10
2023-12-11T05:35:01.514Z,20.58
2023-12-11T05:37:38.006Z,22.05
2023-12-11T05:40:25.279Z,23.05
2023-12-11T05:43:00.782Z,21.85
2023-12-11T05:45:37.782Z,19.80
2023-12-11T05:48:12.603Z,19.17
2023-12-11T05:50:42.381Z,20.35
2023-12-11T05:53:11.718Z,22.25
2023-12-11T05:55:39.086Z,21.63
2023-12-11T05:58:14.786Z,21.92
2023-12-11T06:00:42.499Z,19.58
2023-12-11T06:03:11.638Z,21.10
2023-12-11T06:05:39.238Z,18.90
2023-12-11T06:08:24.832Z,19.15
2023-12-11T06:11:09.173Z,18.38
2023-12-11T06:13:40.076Z,18.73
2023-12-11T06:18:53.571Z,19.05
2023-12-11T06:21:25.070Z,18.23
2023-12-11T06:23:59.902Z,17.60
2023-12-11T06:26:36.611Z,17.85
2023-12-11T06:29:04.405Z,19.83
2023-12-11T06:31:38.789Z,18.20
2023-12-11T06:34:11.411Z,22.17
2023-12-11T06:37:06.220Z,19.80
2023-12-11T06:39:50.329Z,18.77
2023-12-11T06:48:40.127Z,21.13
2023-12-11T06:51:10.352Z,20.65
2023-12-11T06:53:39.012Z,20.65
2023-12-11T07:00:02.914Z,21.70
2023-12-11T07:02:30.044Z,23.70
2023-12-11T07:07:39.221Z,23.05
2023-12-11T07:10:07.310Z,22.77
2023-12-11T07:12:34.675Z,22.88
2023-12-11T07:15:02.169Z,25.00
2023-12-11T07:20:32.606Z,23.63
2023-12-11T07:23:19.253Z,27.60
2023-12-11T07:25:59.302Z,23.55
2023-12-11T07:28:28.342Z,25.27
2023-12-11T07:31:00.298Z,25.02
2023-12-11T07:33:27.678Z,24.25
2023-12-11T07:35:54.981Z,23.92
2023-12-11T07:38:22.301Z,24.60
2023-12-11T07:40:49.423Z,24.95
2023-12-11T07:43:16.599Z,23.13
2023-12-11T07:45:44.449Z,21.33
2023-12-11T07:48:12.030Z,21.70
2023-12-11T07:50:41.120Z,21.90
2023-12-11T07:53:24.069Z,22.60
2023-12-11T07:59:07.518Z,22.63
2023-12-11T08:01:37.633Z,20.40
2023-12-11T08:04:07.593Z,22.33
2023-12-11T08:06:45.513Z,23.88
2023-12-11T08:09:12.985Z,20.25
2023-12-11T08:11:50.317Z,20.30
2023-12-11T08:14:18.863Z,21.08
2023-12-11T08:16:49.258Z,22.38
2023-12-11T08:19:16.708Z,22.17
2023-12-11T08:21:47.843Z,23.42
2023-12-11T08:24:52.150Z,21.58
2023-12-11T08:27:20.959Z,22.83
2023-12-11T08:29:49.645Z,21.95
2023-12-11T08:47:12.723Z,23.10
2023-12-11T08:49:43.434Z,26.55
2023-12-11T08:52:13.740Z,22.80
2023-12-11T08:54:41.384Z,23.48
2023-12-11T08:57:10.437Z,23.73
2023-12-11T08:59:39.021Z,23.20
2023-12-11T09:02:06.427Z,24.17
2023-12-11T09:04:36.582Z,25.55
2023-12-11T09:07:08.821Z,26.35
2023-12-11T09:09:39.396Z,27.88
2023-12-11T09:12:10.950Z,29.23
2023-12-11T09:14:40.348Z,27.52
2023-12-11T09:17:07.447Z,30.38
2023-12-11T09:19:44.202Z,27.33
2023-12-11T09:22:16.257Z,20.35
2023-12-11T09:24:43.925Z,27.80
2023-12-11T09:27:10.947Z,27.23
2023-12-11T09:29:42.039Z,28.40
2023-12-11T09:32:09.050Z,28.95
2023-12-11T09:34:37.353Z,30.13
2023-12-11T09:37:04.671Z,29.30
2023-12-11T09:39:32.962Z,31.67
2023-12-11T09:42:02.774Z,30.00
2023-12-11T09:44:31.568Z,32.20
2023-12-11T09:47:19.121Z,29.95
2023-12-11T09:49:48.374Z,32.30
2023-12-11T09:52:16.844Z,31.95
2023-12-11T09:54:44.253Z,33.72
2023-12-11T09:57:17.284Z,33.00
2023-12-11T10:02:17.489Z,30.30
2023-12-11T10:05:04.732Z,31.55
2023-12-11T10:07:35.487Z,31.42
2023-12-11T10:10:29.453Z,31.70
2023-12-11T10:13:03.088Z,33.20
2023-12-11T10:15:32.941Z,33.35
2023-12-11T10:18:22.439Z,36.10
2023-12-11T10:20:55.690Z,37.60
2023-12-11T10:23:24.042Z,37.25
2023-12-11T10:26:07.164Z,36.72
2023-12-11T10:28:38.129Z,36.20
2023-12-11T10:31:18.040Z,36.88
2023-12-11T10:33:52.047Z,40.25
2023-12-11T10:36:19.426Z,39.40
2023-12-11T10:38:47.537Z,41.25
2023-12-11T10:41:27.145Z,44.95
2023-12-11T10:46:24.294Z,40.03
2023-12-11T10:48:52.177Z,41.70
2023-12-11T10:51:19.912Z,43.42
2023-12-11T10:53:46.906Z,42.35
2023-12-11T10:56:17.470Z,41.10
2023-12-11T10:58:56.931Z,41.15
2023-12-11T11:01:24.558Z,38.40
2023-12-11T11:03:51.822Z,40.90
2023-12-11T11:06:25.698Z,39.25
2023-12-11T11:09:06.484Z,37.33
2023-12-11T11:11:39.274Z,41.30
2023-12-11T11:14:40.174Z,40.88
2023-12-11T11:17:07.915Z,41.15
2023-12-11T11:19:36.599Z,40.80
2023-12-11T11:22:08.204Z,38.83
2023-12-11T11:24:36.978Z,39.92
2023-12-11T11:27:12.239Z,40.22
2023-12-11T11:29:43.520Z,39.20
2023-12-11T11:32:12.236Z,41.75
2023-12-11T11:34:42.492Z,40.22
2023-12-11T11:37:11.062Z,39.70
2023-12-11T11:40:00.556Z,39.60
2023-12-11T11:42:31.497Z,39.25
2023-12-11T11:45:01.006Z,38.28
2023-12-11T11:47:32.529Z,36.95
2023-12-11T11:52:40.284Z,34.90
2023-12-11T11:55:18.547Z,37.22
2023-12-11T11:57:46.244Z,36.58
2023-12-11T12:00:13.787Z,36.83
2023-12-11T12:02:41.305Z,39.85
2023-12-11T12:05:12.905Z,41.55
2023-12-11T12:07:43.752Z,43.00
2023-12-11T12:10:13.845Z,42.83
2023-12-11T12:12:41.058Z,44.53
2023-12-11T12:15:11.776Z,44.33
2023-12-11T12:17:40.913Z,43.22
2023-12-11T12:20:18.614Z,42.25
2023-12-11T12:22:58.616Z,42.50
2023-12-11T12:25:27.897Z,41.05
2023-12-11T12:27:59.674Z,40.70
2023-12-11T12:30:28.941Z,40.13
2023-12-11T12:32:57.537Z,40.75
2023-12-11T12:35:45.216Z,39.83
2023-12-11T12:38:22.759Z,38.88
2023-12-11T12:40:54.951Z,39.05
2023-12-11T12:43:22.257Z,41.05
2023-12-11T12:45:49.436Z,40.75
2023-12-11T12:48:24.086Z,39.70
2023-12-11T12:50:52.502Z,39.63
2023-12-11T12:53:25.157Z,37.83
2023-12-11T12:55:53.690Z,38.10
2023-12-11T12:58:26.783Z,39.63
2023-12-11T13:00:59.856Z,39.75
2023-12-11T13:03:27.249Z,38.97
2023-12-11T13:05:59.326Z,40.78
2023-12-11T13:08:26.783Z,39.22
2023-12-11T13:10:55.483Z,36.97
2023-12-11T13:13:28.675Z,36.78
2023-12-11T13:15:56.930Z,37.70
2023-12-11T13:18:26.462Z,37.45
2023-12-11T13:20:53.549Z,36.65
2023-12-11T13:23:20.597Z,36.22
2023-12-11T13:25:47.730Z,38.28
2023-12-11T13:28:14.996Z,37.80
2023-12-11T13:30:43.132Z,38.80
2023-12-11T13:33:10.535Z,37.03
2023-12-11T13:35:37.985Z,38.15
2023-12-11T13:38:05.278Z,38.17
2023-12-11T13:40:32.556Z,39.38
2023-12-11T13:42:59.636Z,38.05
2023-12-11T13:45:26.737Z,38.83
2023-12-11T13:47:53.784Z,40.92
2023-12-11T13:50:21.034Z,38.20
2023-12-11T13:52:48.358Z,38.35
2023-12-11T13:55:15.732Z,39.13
2023-12-11T13:57:42.861Z,40.50
2023-12-11T14:00:10.517Z,38.83
2023-12-11T14:02:59.843Z,39.03
2023-12-11T14:05:24.653Z,39.53
2023-12-11T14:07:53.558Z,38.10
2023-12-11T14:10:20.540Z,38.03
2023-12-11T14:12:47.584Z,39.83
2023-12-11T14:15:14.571Z,39.38
2023-12-11T14:17:41.781Z,37.30
2023-12-11T14:20:12.187Z,37.85
2023-12-11T14:22:39.655Z,39.67
2023-12-11T14:25:07.617Z,38.53
2023-12-11T14:27:34.895Z,37.88
2023-12-11T14:30:02.278Z,39.08
2023-12-11T14:32:29.987Z,38.58
2023-12-11T14:34:57.380Z,37.55
2023-12-11T14:37:24.840Z,38.28
2023-12-11T14:39:54.097Z,39.78
2023-12-11T14:42:25.009Z,38.50
2023-12-11T14:44:52.278Z,37.03
2023-12-11T14:47:19.469Z,36.65
2023-12-11T14:49:46.613Z,35.88
2023-12-11T14:52:13.911Z,37.00
2023-12-11T14:54:42.390Z,36.03
2023-12-11T14:57:09.508Z,36.10
2023-12-11T14:59:36.710Z,36.88
2023-12-11T15:02:03.979Z,37.40
2023-12-11T15:04:31.136Z,38.50
2023-12-11T15:06:58.837Z,38.30
2023-12-11T15:09:27.632Z,38.05
2023-12-11T15:11:55.287Z,38.03
2023-12-11T15:14:24.315Z,37.60
2023-12-11T15:16:52.870Z,38.08
2023-12-11T15:19:19.884Z,39.10
2023-12-11T15:21:47.001Z,39.40
2023-12-11T15:24:14.093Z,39.17
2023-12-11T15:26:42.157Z,40.35
2023-12-11T15:29:10.373Z,40.13
2023-12-11T15:31:37.569Z,39.42
2023-12-11T15:34:05.553Z,40.28
2023-12-11T15:36:32.744Z,41.47
2023-12-11T15:39:00.215Z,40.35
2023-12-11T15:41:27.630Z,40.63
2023-12-11T15:43:55.481Z,42.45
2023-12-11T15:46:22.777Z,40.10
2023-12-11T15:48:50.796Z,43.42
2023-12-11T15:51:20.444Z,43.70
2023-12-11T15:53:47.837Z,45.17
2023-12-11T15:56:17.280Z,45.33
2023-12-11T15:58:49.061Z,44.97
2023-12-11T16:01:16.394Z,45.45
2023-12-11T16:03:43.808Z,46.10
2023-12-11T16:06:11.627Z,46.22
2023-12-11T16:08:38.953Z,44.63
2023-12-11T16:11:07.325Z,43.95
2023-12-11T16:13:37.029Z,45.38
2023-12-11T16:16:05.114Z,44.10
2023-12-11T16:18:32.178Z,47.03
2023-12-11T16:20:59.417Z,47.10
2023-12-11T16:23:26.919Z,54.67
2023-12-11T16:26:00.243Z,54.60
2023-12-11T16:28:32.231Z,50.25
2023-12-11T16:30:59.565Z,48.92
2023-12-11T16:33:27.312Z,46.78
2023-12-11T16:35:57.454Z,46.28
2023-12-11T16:38:24.488Z,48.03
2023-12-11T16:40:51.825Z,45.13
2023-12-11T16:43:19.514Z,44.92
2023-12-11T16:45:47.537Z,48.65
2023-12-11T16:48:15.047Z,46.92
2023-12-11T16:50:45.973Z,45.85
2023-12-11T16:53:13.274Z,48.50
2023-12-11T16:55:41.355Z,47.83
2023-12-11T16:58:08.919Z,48.13
2023-12-11T17:00:37.314Z,46.20
2023-12-11T17:03:04.705Z,46.72
2023-12-11T17:05:31.951Z,47.15
2023-12-11T17:08:05.245Z,45.88
2023-12-11T17:10:33.758Z,41.38
2023-12-11T17:13:02.076Z,42.08
2023-12-11T17:15:30.134Z,44.90
2023-12-11T17:17:58.579Z,48.45
2023-12-11T17:20:28.216Z,44.65
2023-12-11T17:22:55.350Z,45.15
2023-12-11T17:25:23.043Z,44.00
2023-12-11T17:27:50.504Z,42.58
2023-12-11T17:30:20.283Z,41.03
2023-12-11T17:32:47.358Z,40.65
2023-12-11T17:35:16.185Z,41.63
2023-12-11T17:37:43.263Z,40.17
2023-12-11T17:40:10.915Z,40.67
2023-12-11T17:42:38.847Z,47.97
2023-12-11T17:45:06.873Z,49.67
2023-12-11T17:47:34.949Z,51.75
2023-12-11T17:50:08.778Z,50.22
2023-12-11T17:52:38.964Z,43.70
2023-12-11T17:55:28.732Z,39.00
2023-12-11T17:57:55.957Z,41.30
2023-12-11T18:00:23.174Z,41.13
2023-12-11T18:02:50.361Z,40.65
2023-12-11T18:05:19.789Z,40.90
2023-12-11T18:07:47.029Z,35.85
2023-12-11T18:10:16.196Z,35.92
2023-12-11T18:12:43.526Z,37.55
2023-12-11T18:15:10.901Z,36.05
2023-12-11T18:17:38.499Z,34.38
2023-12-11T18:20:07.319Z,32.83
2023-12-11T18:22:37.155Z,32.67
2023-12-11T18:25:04.351Z,31.35
2023-12-11T18:27:35.833Z,33.88
2023-12-11T18:30:04.044Z,33.38
2023-12-11T18:32:37.306Z,31.17
2023-12-11T18:35:04.939Z,33.08
2023-12-11T18:37:32.556Z,38.60
2023-12-11T18:40:03.913Z,44.03
2023-12-11T18:42:32.856Z,36.42
2023-12-11T18:45:00.927Z,38.47
2023-12-11T18:47:31.065Z,38.75
2023-12-11T18:49:59.141Z,39.80
2023-12-11T18:52:26.405Z,43.50
2023-12-11T18:54:56.149Z,37.55
2023-12-11T18:57:23.264Z,39.53
2023-12-11T19:00:17.587Z,40.63
2023-12-11T19:02:47.801Z,40.90
2023-12-11T19:05:18.067Z,39.53
2023-12-11T19:07:47.393Z,42.35
2023-12-11T19:10:14.583Z,41.65
2023-12-11T19:12:48.068Z,41.85
2023-12-11T19:15:19.063Z,40.53
2023-12-11T19:17:47.141Z,40.85
2023-12-11T19:20:15.329Z,39.60
2023-12-11T19:22:45.349Z,33.15
2023-12-11T19:25:15.639Z,34.60
2023-12-11T19:27:44.349Z,35.53
2023-12-11T19:30:13.079Z,34.72
2023-12-11T19:32:42.963Z,38.35
2023-12-11T19:35:11.210Z,38.25
2023-12-11T19:37:43.261Z,44.63
2023-12-11T19:40:11.980Z,41.63
2023-12-11T19:42:48.104Z,39.60
2023-12-11T19:45:18.870Z,39.28
2023-12-11T19:47:47.024Z,41.17
2023-12-11T19:50:16.018Z,37.60
2023-12-11T19:52:51.279Z,37.17
2023-12-11T19:55:20.182Z,37.22
2023-12-11T19:57:48.074Z,40.88
2023-12-11T20:00:18.148Z,39.80
2023-12-11T20:02:47.462Z,40.03
2023-12-11T20:05:14.653Z,42.38
2023-12-11T20:07:41.720Z,44.78
2023-12-11T20:10:10.268Z,44.92
2023-12-11T20:12:37.930Z,39.05
2023-12-11T20:15:05.839Z,35.88
2023-12-11T20:17:34.892Z,36.92
2023-12-11T20:20:05.623Z,36.85
2023-12-11T20:22:33.114Z,40.10
2023-12-11T20:25:00.364Z,38.90
2023-12-11T20:27:27.487Z,42.47
2023-12-11T20:29:54.538Z,39.63
2023-12-11T20:32:21.625Z,40.45
2023-12-11T20:34:48.693Z,39.78
2023-12-11T20:37:15.832Z,37.17
2023-12-11T20:39:42.875Z,38.05
2023-12-11T20:42:09.985Z,37.58
2023-12-11T20:44:36.958Z,36.17
2023-12-11T20:47:03.927Z,62.78
2023-12-11T20:49:30.906Z,41.72
2023-12-11T20:51:57.901Z,37.33
2023-12-11T20:54:24.912Z,36.25
2023-12-11T20:56:51.960Z,36.78
2023-12-11T20:59:18.933Z,37.30
2023-12-11T21:01:46.063Z,36.78
2023-12-11T21:04:13.285Z,36.75
2023-12-11T21:06:40.427Z,35.10
2023-12-11T21:09:11.893Z,36.55
2023-12-11T21:11:39.061Z,31.83
2023-12-11T21:14:06.260Z,32.55
2023-12-11T21:16:36.288Z,34.88
2023-12-11T21:19:04.316Z,33.40
2023-12-11T21:21:31.881Z,34.47
2023-12-11T21:23:59.156Z,36.75
2023-12-11T21:26:29.135Z,39.67
2023-12-11T21:28:56.277Z,35.40
2023-12-11T21:31:28.310Z,33.28
2023-12-11T21:33:56.247Z,28.55
2023-12-11T21:36:32.472Z,29.10
2023-12-11T21:39:00.722Z,29.00
2023-12-11T21:41:28.524Z,29.15
2023-12-11T21:43:57.949Z,27.48
2023-12-11T21:46:27.106Z,102.03
2023-12-11T21:48:58.041Z,42.42
2023-12-11T21:51:27.245Z,30.50
2023-12-11T21:53:54.564Z,31.38
2023-12-11T21:56:24.479Z,26.63
2023-12-11T21:58:53.396Z,26.20
2023-12-11T22:01:20.719Z,24.65
2023-12-11T22:03:48.119Z,22.85
2023-12-11T22:06:15.477Z,28.42
2023-12-11T22:08:43.219Z,24.20
2023-12-11T22:11:18.050Z,25.90
2023-12-11T22:13:57.903Z,33.35
2023-12-11T22:16:28.202Z,34.83
2023-12-11T22:19:01.380Z,27.98
2023-12-11T22:21:32.351Z,26.25
2023-12-11T22:24:02.843Z,24.02
2023-12-11T22:26:30.519Z,22.70
2023-12-11T22:28:58.708Z,22.70
2023-12-11T22:31:39.888Z,22.33
2023-12-11T22:34:18.914Z,24.92
2023-12-11T22:36:46.800Z,23.75
2023-12-11T22:39:16.086Z,22.88
2023-12-11T22:41:43.562Z,22.23
2023-12-11T22:44:13.118Z,24.45
2023-12-11T22:46:44.367Z,23.63
2023-12-11T22:49:12.979Z,24.05
2023-12-11T22:51:42.782Z,22.20
2023-12-11T22:54:10.944Z,23.08
2023-12-11T22:56:38.634Z,22.48
2023-12-11T22:59:07.492Z,21.77
2023-12-11T23:01:37.143Z,20.88
2023-12-11T23:04:05.763Z,22.20
2023-12-11T23:06:36.001Z,22.70
2023-12-11T23:09:06.231Z,22.70
2023-12-11T23:11:35.332Z,21.02
2023-12-11T23:14:06.898Z,20.48
2023-12-11T23:19:04.399Z,22.27
2023-12-11T23:21:38.099Z,22.60
2023-12-11T23:24:11.927Z,21.85
2023-12-11T23:26:40.106Z,22.13
2023-12-11T23:29:11.032Z,23.20
2023-12-11T23:31:44.359Z,18.52
2023-12-11T23:34:12.373Z,25.00
2023-12-11T23:36:44.465Z,22.67
2023-12-11T23:41:55.293Z,20.52
2023-12-11T23:44:29.712Z,26.33
2023-12-11T23:46:57.612Z,25.95
2023-12-11T23:49:31.020Z,24.95
2023-12-11T23:51:59.244Z,21.30
2023-12-11T23:54:36.277Z,22.33
2023-12-11T23:57:15.070Z,23.83
2023-12-11T23:59:45.683Z,22.77
